Time;durP1;ratioP1;P1;durP2;ratioP2;P2;SDS_P1;SDS_P2;PMS_P1;PMS_P2;Temp;Humidity;BMP_temperature;BMP_pressure;BME280_temperature;BME280_humidity;BME280_pressure;Samples;Min_cycle;Max_cycle;Signal;HPM_P1;HPM_P2
2022/03/06 00:02:05;;;;;;;9.85;5.82;;;;;;;12.73;30.28;96283.00;5034558;28;20037;-27
2022/03/06 00:04:31;;;;;;;10.23;6.30;;;;;;;12.70;30.39;96283.13;5034555;28;20387;-27
2022/03/06 00:06:57;;;;;;;9.40;6.30;;;;;;;12.73;30.67;96285.72;5033988;28;20041;-28
2022/03/06 00:09:23;;;;;;;10.93;6.30;;;;;;;12.78;30.31;96282.41;5034173;28;20025;-26
2022/03/06 00:11:49;;;;;;;11.68;6.25;;;;;;;12.89;30.04;96287.47;5034608;28;20408;-26
2022/03/06 00:14:15;;;;;;;10.73;6.00;;;;;;;12.98;30.28;96284.81;5034440;28;20036;-27
2022/03/06 00:16:41;;;;;;;11.05;6.20;;;;;;;12.97;29.97;96291.47;5034056;28;20021;-26
2022/03/06 00:19:07;;;;;;;10.70;6.20;;;;;;;12.94;29.88;96290.38;5033519;28;20029;-27
2022/03/06 00:21:34;;;;;;;12.88;6.30;;;;;;;12.94;30.22;96300.50;5034398;28;20104;-26
2022/03/06 00:24:00;;;;;;;10.18;6.57;;;;;;;12.82;30.37;96295.91;5034388;28;20025;-26
2022/03/06 00:26:26;;;;;;;11.60;6.43;;;;;;;12.91;30.28;96295.94;5034225;28;20025;-29
2022/03/06 00:28:52;;;;;;;9.98;6.22;;;;;;;12.90;29.90;96302.59;5032877;28;20034;-25
2022/03/06 00:31:17;;;;;;;12.00;6.68;;;;;;;12.75;30.57;96309.75;5034212;28;20032;-26
2022/03/06 00:33:43;;;;;;;12.02;6.72;;;;;;;12.86;30.10;96307.41;5034163;28;20430;-27
2022/03/06 00:36:09;;;;;;;10.02;6.15;;;;;;;12.99;30.22;96301.88;5032605;28;20033;-26
2022/03/06 00:38:34;;;;;;;10.20;6.00;;;;;;;12.93;30.08;96299.75;5031632;28;20025;-26
2022/03/06 00:41:00;;;;;;;10.10;6.40;;;;;;;12.79;30.42;96307.66;5033747;28;20033;-26
2022/03/06 00:43:26;;;;;;;9.93;6.00;;;;;;;12.95;30.21;96296.59;5034008;28;20037;-27
2022/03/06 00:45:51;;;;;;;9.18;6.53;;;;;;;12.83;30.37;96316.47;5033749;28;20026;-27
2022/03/06 00:48:17;;;;;;;13.35;7.00;;;;;;;12.83;30.00;96321.91;5031508;28;20025;-26
2022/03/06 00:50:42;;;;;;;9.82;6.20;;;;;;;12.88;30.02;96311.19;5033791;28;20413;-26
2022/03/06 00:53:08;;;;;;;11.43;6.72;;;;;;;12.89;30.40;96311.97;5033750;28;20458;-27
2022/03/06 00:55:36;;;;;;;10.52;6.95;;;;;;;12.83;30.31;96308.31;5033673;28;20030;-27
2022/03/06 00:58:05;;;;;;;11.43;6.88;;;;;;;12.88;30.06;96305.75;5031220;28;20025;-27
2022/03/06 01:00:36;;;;;;;13.27;7.07;;;;;;;12.92;29.87;96313.81;5033614;28;20021;-26
2022/03/06 01:03:07;;;;;;;12.13;6.85;;;;;;;12.86;30.29;96312.84;5032658;28;20049;-26
2022/03/06 01:05:32;;;;;;;10.68;6.70;;;;;;;12.92;30.42;96311.84;5031680;28;20040;-26
2022/03/06 01:07:58;;;;;;;12.18;7.03;;;;;;;12.81;30.11;96314.19;5030038;28;20444;-27
2022/03/06 01:10:24;;;;;;;10.57;7.05;;;;;;;12.94;30.13;96305.97;5033343;28;20461;-27
2022/03/06 01:12:49;;;;;;;8.75;5.90;;;;;;;12.87;30.25;96301.50;5032264;28;20045;-28
2022/03/06 01:15:15;;;;;;;9.95;6.10;;;;;;;12.84;30.18;96318.00;5033150;28;20056;-26
2022/03/06 01:17:41;;;;;;;12.00;6.68;;;;;;;12.91;30.17;96310.31;5032379;28;20075;-26
2022/03/06 01:20:07;;;;;;;11.63;6.35;;;;;;;12.95;30.02;96310.97;5033374;28;20033;-26
2022/03/06 01:22:32;;;;;;;11.18;6.90;;;;;;;12.82;30.32;96304.06;5033090;28;20036;-26
2022/03/06 01:24:58;;;;;;;11.48;6.82;;;;;;;12.77;30.30;96312.78;5033126;28;20026;-26
2022/03/06 01:27:24;;;;;;;12.80;7.10;;;;;;;12.88;29.81;96303.03;5032306;28;20079;-26
2022/03/06 01:29:50;;;;;;;11.38;6.60;;;;;;;12.96;29.86;96303.56;5033051;28;20040;-26
2022/03/06 01:32:16;;;;;;;9.77;6.03;;;;;;;12.76;30.22;96303.09;5032987;28;20470;-26
2022/03/06 01:34:41;;;;;;;12.65;7.03;;;;;;;12.65;30.29;96300.00;5032995;28;20032;-26
2022/03/06 01:37:07;;;;;;;10.25;6.70;;;;;;;12.72;30.16;96286.16;5032207;28;20029;-26
2022/03/06 01:39:33;;;;;;;12.52;6.82;;;;;;;12.77;30.11;96291.00;5032654;28;20027;-27
2022/03/06 01:41:59;;;;;;;10.15;6.18;;;;;;;12.77;30.15;96291.78;5032956;28;20382;-26
2022/03/06 01:44:25;;;;;;;8.82;6.05;;;;;;;12.87;30.21;96295.31;5033092;28;20366;-28
2022/03/06 01:46:50;;;;;;;12.52;6.95;;;;;;;12.65;30.55;96291.84;5033352;28;20034;-26
2022/03/06 01:49:17;;;;;;;11.57;7.28;;;;;;;12.66;30.03;96293.38;5033425;28;20156;-26
2022/03/06 01:51:43;;;;;;;10.27;6.80;;;;;;;12.81;29.88;96286.97;5029511;28;20025;-26
2022/03/06 01:54:09;;;;;;;10.40;6.97;;;;;;;12.82;29.92;96282.28;5031242;28;20067;-26
2022/03/06 01:56:36;;;;;;;11.95;6.88;;;;;;;12.84;30.26;96274.44;5031396;28;20025;-27
2022/03/06 01:59:03;;;;;;;11.20;6.90;;;;;;;12.74;29.97;96276.34;5031430;28;20030;-26
2022/03/06 02:01:30;;;;;;;11.57;7.55;;;;;;;12.53;30.10;96277.84;5031393;28;20029;-26
2022/03/06 02:03:56;;;;;;;11.77;7.50;;;;;;;12.33;30.70;96277.41;5029584;28;20064;-26
2022/03/06 02:06:23;;;;;;;11.20;6.53;;;;;;;12.67;30.20;96264.97;5031186;28;20022;-26
2022/03/06 02:08:48;;;;;;;11.55;7.13;;;;;;;12.74;30.49;96260.00;5026309;28;20097;-26
2022/03/06 02:11:15;;;;;;;11.95;6.70;;;;;;;12.78;30.11;96260.66;5033457;28;20501;-26
2022/03/06 02:13:43;;;;;;;10.82;6.47;;;;;;;12.72;30.50;96262.44;5034968;28;20147;-26
2022/03/06 02:16:09;;;;;;;11.30;7.15;;;;;;;12.70;30.00;96269.50;5037177;28;20017;-27
2022/03/06 02:18:35;;;;;;;11.90;6.80;;;;;;;12.84;29.75;96274.44;5037193;28;20496;-27
2022/03/06 02:21:09;;;;;;;13.30;7.55;;;;;;;12.65;30.19;96272.78;5037192;28;20030;-27
2022/03/06 02:23:35;;;;;;;13.27;7.05;;;;;;;12.72;30.38;96283.44;5037191;28;20071;-26
2022/03/06 02:26:00;;;;;;;12.20;6.90;;;;;;;12.82;30.27;96276.84;5037166;28;20114;-27
2022/03/06 02:28:26;;;;;;;11.05;6.53;;;;;;;12.79;30.23;96280.44;5037208;28;20041;-26
2022/03/06 02:30:53;;;;;;;11.93;7.00;;;;;;;12.64;30.64;96271.28;5036951;28;20108;-26
2022/03/06 02:33:18;;;;;;;11.80;7.97;;;;;;;12.70;30.68;96274.97;5037183;28;20025;-27
2022/03/06 02:35:44;;;;;;;11.95;6.97;;;;;;;12.82;29.99;96271.41;5036909;28;20152;-26
2022/03/06 02:38:10;;;;;;;9.40;6.78;;;;;;;12.85;30.37;96275.97;5036903;28;20025;-26
2022/03/06 02:40:40;;;;;;;11.95;6.68;;;;;;;12.81;30.42;96281.53;5036782;28;20079;-26
2022/03/06 02:43:06;;;;;;;10.38;7.00;;;;;;;12.76;30.51;96278.63;5036853;28;20026;-26
2022/03/06 02:45:33;;;;;;;9.98;6.65;;;;;;;12.76;30.05;96284.06;5035354;28;20028;-26
2022/03/06 02:47:59;;;;;;;10.85;6.72;;;;;;;12.75;30.08;96271.66;5037208;28;20441;-28
2022/03/06 02:50:28;;;;;;;12.00;6.40;;;;;;;12.74;30.64;96265.44;5036695;28;20056;-27
2022/03/06 02:52:55;;;;;;;12.73;7.05;;;;;;;12.76;30.09;96265.00;5036905;28;20025;-27
2022/03/06 02:55:21;;;;;;;13.07;7.00;;;;;;;12.72;30.44;96267.88;5036439;28;20029;-26
2022/03/06 02:57:47;;;;;;;11.30;6.50;;;;;;;12.86;30.06;96256.44;5036601;28;20029;-26
2022/03/06 03:00:15;;;;;;;11.35;7.43;;;;;;;12.66;30.33;96271.59;5036474;28;20365;-26
2022/03/06 03:02:42;;;;;;;11.20;6.78;;;;;;;12.75;30.26;96268.94;5036545;28;20128;-27
2022/03/06 03:05:12;;;;;;;11.90;7.13;;;;;;;12.70;30.40;96266.78;5036462;28;20557;-26
2022/03/06 03:07:43;;;;;;;9.70;6.72;;;;;;;12.74;30.27;96267.41;5035031;28;20078;-26
2022/03/06 03:10:11;;;;;;;11.50;6.70;;;;;;;12.67;30.81;96281.28;5036206;28;20075;-26
2022/03/06 03:12:37;;;;;;;10.40;6.55;;;;;;;12.69;30.59;96273.44;5036551;28;20492;-26
2022/03/06 03:15:05;;;;;;;10.77;6.95;;;;;;;12.73;30.81;96280.28;5035983;28;20103;-26
2022/03/06 03:17:31;;;;;;;9.98;6.38;;;;;;;12.77;30.49;96266.53;5034904;28;20119;-28
2022/03/06 03:19:56;;;;;;;8.57;6.03;;;;;;;12.69;30.66;96276.16;5036321;28;20108;-26
2022/03/06 03:22:22;;;;;;;13.60;6.88;;;;;;;12.62;30.47;96284.56;5035985;28;20029;-26
2022/03/06 03:24:48;;;;;;;11.43;6.13;;;;;;;12.72;30.63;96283.44;5035437;28;20025;-27
2022/03/06 03:27:13;;;;;;;10.65;6.60;;;;;;;12.75;30.50;96277.09;5035002;28;20540;-27
2022/03/06 03:29:39;;;;;;;10.75;6.40;;;;;;;12.74;30.27;96281.00;5035994;28;20421;-27
2022/03/06 03:32:05;;;;;;;10.10;6.32;;;;;;;12.73;30.62;96284.97;5035822;28;20466;-27
2022/03/06 03:34:31;;;;;;;10.68;6.45;;;;;;;12.80;30.23;96290.13;5036011;28;20029;-27
2022/03/06 03:36:56;;;;;;;12.02;6.65;;;;;;;12.85;30.67;96289.56;5035911;28;20044;-26
2022/03/06 03:39:22;;;;;;;12.18;6.93;;;;;;;12.68;30.56;96299.13;5036123;28;20533;-26
2022/03/06 03:41:48;;;;;;;11.10;6.45;;;;;;;12.74;31.02;96294.63;5035641;28;20127;-26
2022/03/06 03:44:13;;;;;;;9.50;6.22;;;;;;;12.77;30.40;96297.22;5035610;28;20033;-26
2022/03/06 03:46:39;;;;;;;12.05;6.47;;;;;;;12.74;30.54;96302.78;5035727;28;20108;-26
2022/03/06 03:49:05;;;;;;;9.65;5.80;;;;;;;12.67;30.96;96305.78;5034206;28;20033;-26
2022/03/06 03:51:31;;;;;;;9.00;6.18;;;;;;;12.59;30.86;96303.31;5035640;28;20024;-27
2022/03/06 03:53:56;;;;;;;10.18;6.22;;;;;;;12.64;30.80;96301.19;5035483;28;20420;-26
2022/03/06 03:56:22;;;;;;;15.70;6.50;;;;;;;12.51;31.00;96303.97;5035354;28;20358;-26
2022/03/06 03:58:49;;;;;;;10.27;6.13;;;;;;;12.46;31.16;96310.75;5035386;28;20026;-26
2022/03/06 04:01:17;;;;;;;8.98;5.55;;;;;;;12.66;30.47;96317.84;5035417;28;20029;-26
2022/03/06 04:03:43;;;;;;;8.55;5.65;;;;;;;12.62;30.62;96311.75;5035154;28;20049;-26
2022/03/06 04:06:08;;;;;;;9.93;5.50;;;;;;;12.70;30.73;96313.81;5035229;28;20021;-26
2022/03/06 04:08:34;;;;;;;9.35;5.82;;;;;;;12.73;30.50;96312.94;5033983;28;20057;-27
2022/03/06 04:11:00;;;;;;;11.27;5.82;;;;;;;12.71;30.47;96309.13;5031062;28;20033;-26
2022/03/06 04:13:27;;;;;;;9.95;6.20;;;;;;;12.51;30.78;96310.19;5033828;28;20029;-27
2022/03/06 04:15:53;;;;;;;8.38;5.80;;;;;;;12.60;30.94;96325.84;5034847;28;20105;-27
2022/03/06 04:18:18;;;;;;;9.75;5.70;;;;;;;12.67;30.33;96335.69;5035161;28;20113;-27
2022/03/06 04:20:44;;;;;;;10.43;5.88;;;;;;;12.64;30.68;96331.13;5034956;28;20420;-27
2022/03/06 04:23:10;;;;;;;7.82;5.25;;;;;;;12.63;30.65;96329.59;5034926;28;20079;-26
2022/03/06 04:25:35;;;;;;;9.48;5.90;;;;;;;12.63;30.66;96324.94;5034902;28;20037;-27
2022/03/06 04:28:01;;;;;;;9.52;5.18;;;;;;;12.59;30.74;96321.59;5034861;28;20025;-27
2022/03/06 04:30:27;;;;;;;8.40;5.65;;;;;;;12.62;30.75;96317.22;5034919;28;20370;-28
2022/03/06 04:32:52;;;;;;;8.43;5.35;;;;;;;12.72;30.44;96324.25;5035091;28;20086;-26
2022/03/06 04:35:18;;;;;;;8.90;5.47;;;;;;;12.62;30.77;96328.84;5034496;28;20033;-29
2022/03/06 04:37:44;;;;;;;8.55;5.20;;;;;;;12.56;30.45;96328.66;5033735;28;20029;-26
2022/03/06 04:40:10;;;;;;;9.15;5.57;;;;;;;12.70;30.55;96342.97;5034569;28;20033;-27
2022/03/06 04:42:36;;;;;;;8.07;5.05;;;;;;;12.58;30.74;96334.44;5034523;28;20029;-26
2022/03/06 04:45:02;;;;;;;9.57;5.30;;;;;;;12.64;30.48;96329.16;5034400;28;20032;-28
2022/03/06 04:47:28;;;;;;;8.50;5.20;;;;;;;12.44;31.15;96336.88;5034434;28;20025;-26
2022/03/06 04:49:54;;;;;;;8.70;5.03;;;;;;;12.59;30.97;96335.19;5034348;28;20025;-27
2022/03/06 04:52:20;;;;;;;10.00;5.45;;;;;;;12.71;30.56;96330.91;5034450;28;20026;-26
2022/03/06 04:54:45;;;;;;;6.80;5.22;;;;;;;12.56;30.87;96333.34;5034530;28;20379;-28
2022/03/06 04:57:11;;;;;;;6.90;4.75;;;;;;;12.58;30.73;96334.44;5034210;28;20026;-27
2022/03/06 04:59:36;;;;;;;9.18;5.15;;;;;;;12.67;30.38;96335.69;5034369;28;20516;-27
2022/03/06 05:02:02;;;;;;;7.72;5.07;;;;;;;12.65;30.29;96327.22;5032679;28;20035;-30
2022/03/06 05:04:28;;;;;;;8.05;4.93;;;;;;;12.58;30.44;96333.66;5034027;28;20413;-26
2022/03/06 05:06:53;;;;;;;7.47;5.30;;;;;;;12.60;30.45;96339.44;5034240;28;20029;-26
2022/03/06 05:09:19;;;;;;;7.57;5.13;;;;;;;12.55;30.30;96329.09;5033900;28;20024;-27
2022/03/06 05:11:45;;;;;;;10.30;5.07;;;;;;;12.64;30.44;96333.84;5033910;28;20025;-27
2022/03/06 05:14:10;;;;;;;7.32;5.13;;;;;;;12.58;30.83;96339.13;5034035;28;20018;-28
2022/03/06 05:16:36;;;;;;;9.18;5.20;;;;;;;12.49;30.91;96342.50;5032597;28;20031;-26
2022/03/06 05:19:01;;;;;;;6.97;4.80;;;;;;;12.50;30.88;96326.94;5034032;28;20033;-26
2022/03/06 05:21:27;;;;;;;6.47;4.70;;;;;;;12.39;31.00;96326.53;5034016;28;20458;-26
2022/03/06 05:23:53;;;;;;;7.53;4.70;;;;;;;12.52;30.91;96338.91;5033780;28;20034;-26
2022/03/06 05:26:18;;;;;;;6.93;4.32;;;;;;;12.53;30.74;96334.97;5032448;28;20048;-28
2022/03/06 05:28:45;;;;;;;8.82;5.10;;;;;;;12.59;30.44;96341.41;5033696;28;20033;-26
2022/03/06 05:31:10;;;;;;;9.20;5.03;;;;;;;12.49;30.50;96330.84;5033886;28;20164;-26
2022/03/06 05:33:36;;;;;;;8.50;4.93;;;;;;;12.66;30.67;96345.06;5033686;28;20017;-26
2022/03/06 05:36:02;;;;;;;8.50;4.90;;;;;;;12.50;30.68;96351.41;5033488;28;20029;-26
2022/03/06 05:38:28;;;;;;;8.23;5.25;;;;;;;12.51;30.58;96350.97;5033643;28;20091;-26
2022/03/06 05:40:53;;;;;;;7.13;4.82;;;;;;;12.51;30.48;96356.41;5033420;28;20029;-26
2022/03/06 05:43:19;;;;;;;8.43;4.68;;;;;;;12.63;30.42;96354.09;5032318;28;20025;-26
2022/03/06 05:45:49;;;;;;;8.90;5.07;;;;;;;12.56;30.75;96358.59;5033480;28;20021;-26
2022/03/06 05:48:16;;;;;;;7.82;5.43;;;;;;;12.58;30.58;96364.34;5033097;28;20025;-26
2022/03/06 05:50:43;;;;;;;8.02;4.82;;;;;;;12.61;30.87;96359.97;5033429;28;20045;-26
2022/03/06 05:53:09;;;;;;;7.38;4.55;;;;;;;12.67;30.38;96349.31;5033387;28;20029;-27
2022/03/06 05:55:41;;;;;;;8.52;5.18;;;;;;;12.49;31.01;96344.47;5033055;28;20018;-27
2022/03/06 05:58:07;;;;;;;6.15;4.75;;;;;;;12.27;31.01;96358.00;5033366;28;20037;-27
2022/03/06 06:00:33;;;;;;;8.07;4.97;;;;;;;12.44;30.48;96359.41;5033374;28;20030;-27
2022/03/06 06:02:58;;;;;;;7.20;5.07;;;;;;;12.56;30.52;96353.16;5032989;28;20060;-26
2022/03/06 06:05:24;;;;;;;7.47;5.63;;;;;;;12.56;30.58;96361.31;5033297;28;20013;-26
2022/03/06 06:07:51;;;;;;;7.47;4.65;;;;;;;12.38;30.64;96358.41;5033554;28;20113;-26
2022/03/06 06:10:18;;;;;;;9.70;4.43;;;;;;;12.54;30.65;96362.94;5032956;28;20104;-27
2022/03/06 06:12:43;;;;;;;7.07;4.90;;;;;;;12.55;30.66;96362.50;5033257;28;20019;-26
2022/03/06 06:15:10;;;;;;;8.70;4.68;;;;;;;12.63;30.70;96360.28;5033074;28;20025;-26
2022/03/06 06:17:36;;;;;;;7.55;4.82;;;;;;;12.24;30.18;96370.53;5032954;28;20030;-26
2022/03/06 06:20:04;;;;;;;10.10;5.03;;;;;;;12.39;30.87;96368.09;5033172;28;20028;-26
2022/03/06 06:22:31;;;;;;;7.72;5.10;;;;;;;12.55;30.42;96370.66;5033084;28;20034;-26
2022/03/06 06:25:00;;;;;;;6.30;4.28;;;;;;;12.50;30.29;96365.78;5033178;28;20410;-27
2022/03/06 06:27:27;;;;;;;7.15;4.85;;;;;;;12.46;30.58;96367.88;5033222;28;20389;-26
2022/03/06 06:29:53;;;;;;;7.18;4.63;;;;;;;12.54;30.74;96366.44;5033210;28;20028;-26
2022/03/06 06:32:18;;;;;;;6.55;4.97;;;;;;;12.52;30.27;96365.34;5032973;28;20017;-27
2022/03/06 06:34:45;;;;;;;7.57;4.50;;;;;;;12.60;30.32;96366.66;5032993;28;20386;-26
2022/03/06 06:37:11;;;;;;;7.97;5.25;;;;;;;12.42;30.54;96359.06;5032776;28;20405;-26
2022/03/06 06:39:37;;;;;;;9.75;4.95;;;;;;;12.43;30.89;96366.03;5033272;28;20053;-26
2022/03/06 06:42:03;;;;;;;8.73;4.78;;;;;;;12.52;30.44;96370.78;5032972;28;20536;-27
2022/03/06 06:44:30;;;;;;;9.48;5.30;;;;;;;12.55;30.53;96373.38;5032949;28;20044;-28
2022/03/06 06:46:56;;;;;;;8.43;5.07;;;;;;;12.52;30.28;96370.78;5032882;28;20075;-26
2022/03/06 06:49:22;;;;;;;8.15;5.25;;;;;;;12.48;30.39;96370.94;5032992;28;20025;-26
2022/03/06 06:51:48;;;;;;;9.20;5.38;;;;;;;12.33;30.80;96372.59;5032779;28;20021;-26
2022/03/06 06:54:13;;;;;;;8.98;5.50;;;;;;;12.45;30.56;96376.47;5031600;28;20037;-26
2022/03/06 06:56:39;;;;;;;8.88;5.57;;;;;;;12.43;30.40;96374.19;5033111;28;20030;-26
2022/03/06 06:59:05;;;;;;;9.88;4.72;;;;;;;12.50;30.14;96382.09;5032791;28;20382;-26
2022/03/06 07:01:31;;;;;;;8.48;5.53;;;;;;;12.44;30.59;96381.16;5035118;28;20087;-28
2022/03/06 07:03:57;;;;;;;10.43;5.63;;;;;;;12.55;30.30;96378.84;5036094;28;20568;-27
2022/03/06 07:06:22;;;;;;;7.50;5.05;;;;;;;12.24;31.01;96380.63;5036452;28;20021;-28
2022/03/06 07:08:48;;;;;;;8.95;5.38;;;;;;;12.39;30.47;96386.38;5036317;28;20075;-26
2022/03/06 07:11:13;;;;;;;7.68;5.18;;;;;;;12.38;30.66;96374.72;5036253;28;20041;-28
2022/03/06 07:13:39;;;;;;;9.13;5.20;;;;;;;12.19;30.58;96379.25;5036178;28;20164;-26
2022/03/06 07:16:05;;;;;;;8.90;5.82;;;;;;;12.12;31.01;96384.13;5036077;28;20041;-26
2022/03/06 07:18:31;;;;;;;9.25;5.95;;;;;;;12.05;31.26;96373.50;5034840;28;20031;-26
2022/03/06 07:20:56;;;;;;;7.32;4.97;;;;;;;12.36;30.85;96376.41;5036428;28;20122;-26
2022/03/06 07:23:22;;;;;;;8.95;5.45;;;;;;;12.40;30.37;96385.94;5036200;28;20022;-26
2022/03/06 07:25:48;;;;;;;8.88;4.93;;;;;;;12.40;30.38;96390.63;5035936;28;20386;-27
2022/03/06 07:28:13;;;;;;;8.52;5.20;;;;;;;12.42;30.45;96385.50;5035044;28;20041;-26
2022/03/06 07:30:39;;;;;;;8.52;4.80;;;;;;;12.39;30.64;96392.56;5035878;28;20482;-27
2022/03/06 07:33:05;;;;;;;8.48;5.30;;;;;;;12.49;30.30;96382.53;5035783;28;20032;-27
2022/03/06 07:35:31;;;;;;;8.23;5.22;;;;;;;12.39;30.58;96392.56;5036002;28;20048;-26
2022/03/06 07:37:58;;;;;;;9.27;5.70;;;;;;;12.47;30.13;96393.88;5035780;28;20024;-26
2022/03/06 07:40:24;;;;;;;9.27;5.88;;;;;;;12.03;30.93;96398.41;5035661;28;20473;-27
2022/03/06 07:42:49;;;;;;;9.38;5.70;;;;;;;12.38;30.70;96393.78;5035761;28;20108;-26
2022/03/06 07:45:16;;;;;;;9.35;5.75;;;;;;;12.48;30.58;96400.84;5035798;28;20096;-26
2022/03/06 07:47:41;;;;;;;8.98;5.93;;;;;;;12.43;30.31;96385.06;5035953;28;20052;-27
2022/03/06 07:50:09;;;;;;;11.77;5.60;;;;;;;12.41;30.38;96409.22;5035410;28;20485;-27
2022/03/06 07:52:36;;;;;;;10.32;6.05;;;;;;;12.23;30.66;96407.09;5021349;28;20746;-26
2022/03/06 07:55:03;;;;;;;9.95;5.70;;;;;;;12.30;30.61;96410.75;5013454;28;20026;-26
2022/03/06 07:57:28;;;;;;;9.77;5.55;;;;;;;12.44;30.52;96405.63;5013572;28;20033;-26
2022/03/06 07:59:54;;;;;;;10.35;5.25;;;;;;;12.45;30.70;96407.16;5013531;28;20053;-28
2022/03/06 08:02:19;;;;;;;10.45;6.38;;;;;;;12.29;30.85;96407.28;5013180;28;20651;-27
2022/03/06 08:04:45;;;;;;;11.05;5.30;;;;;;;12.50;30.67;96406.59;5013067;28;20371;-27
2022/03/06 08:07:10;;;;;;;10.40;5.90;;;;;;;12.50;30.28;96411.25;5020950;28;20033;-27
2022/03/06 08:09:36;;;;;;;11.00;6.20;;;;;;;12.50;30.49;96417.47;5033363;28;20044;-27
2022/03/06 08:12:03;;;;;;;10.00;5.70;;;;;;;12.43;30.67;96414.22;5033080;28;20029;-26
2022/03/06 08:14:29;;;;;;;10.13;5.63;;;;;;;12.46;30.84;96416.84;5032667;28;20079;-27
2022/03/06 08:16:55;;;;;;;10.00;5.90;;;;;;;12.28;30.76;96416.63;5032360;28;20108;-26
2022/03/06 08:19:20;;;;;;;10.85;5.63;;;;;;;12.35;30.95;96419.16;5032742;28;20029;-26
2022/03/06 08:21:48;;;;;;;8.75;5.45;;;;;;;12.35;30.67;96419.16;5032838;28;20064;-27
2022/03/06 08:24:14;;;;;;;8.75;5.70;;;;;;;12.35;30.93;96424.59;5033083;28;20397;-28
2022/03/06 08:26:39;;;;;;;10.13;5.80;;;;;;;12.43;30.96;96417.72;5032106;28;20025;-27
2022/03/06 08:29:05;;;;;;;8.30;5.30;;;;;;;12.45;30.52;96415.31;5032554;28;20044;-26
2022/03/06 08:31:30;;;;;;;9.90;5.28;;;;;;;12.56;30.38;96423.88;5032908;28;20025;-26
2022/03/06 08:33:56;;;;;;;9.02;5.55;;;;;;;12.51;30.74;96421.72;5032737;28;20056;-27
2022/03/06 08:36:22;;;;;;;11.40;5.53;;;;;;;12.49;30.80;96415.19;5032611;28;20037;-26
2022/03/06 08:38:47;;;;;;;11.40;6.30;;;;;;;12.51;30.79;96415.50;5032712;28;20434;-26
2022/03/06 08:41:14;;;;;;;10.10;5.75;;;;;;;12.39;30.92;96419.78;5032118;28;20156;-26
2022/03/06 08:43:40;;;;;;;11.18;6.55;;;;;;;12.30;31.16;96413.50;5032497;28;20033;-26
2022/03/06 08:46:06;;;;;;;9.93;5.63;;;;;;;12.39;30.95;96419.00;5032891;28;20048;-28
2022/03/06 08:48:32;;;;;;;9.70;6.10;;;;;;;12.53;30.99;96418.56;5031814;28;20029;-26
2022/03/06 08:50:58;;;;;;;10.50;6.32;;;;;;;12.47;31.11;96421.09;5034435;28;20029;-27
2022/03/06 08:53:24;;;;;;;11.45;5.82;;;;;;;12.49;31.10;96421.38;5034113;28;20025;-27
2022/03/06 08:55:50;;;;;;;9.40;5.53;;;;;;;12.40;31.24;96410.41;5034083;28;20048;-26
2022/03/06 08:58:15;;;;;;;9.98;5.38;;;;;;;12.37;31.08;96426.84;5034213;28;20356;-26
2022/03/06 09:00:41;;;;;;;10.15;5.53;;;;;;;12.23;31.17;96426.13;5033647;28;20037;-27
2022/03/06 09:03:07;;;;;;;9.45;5.68;;;;;;;12.29;31.34;96420.13;5033993;28;20508;-26
2022/03/06 09:05:38;;;;;;;10.40;5.47;;;;;;;12.20;31.30;96423.50;5034121;28;20104;-28
2022/03/06 09:08:04;;;;;;;10.07;5.72;;;;;;;12.33;31.28;96421.53;5034410;28;20040;-26
2022/03/06 09:10:29;;;;;;;8.52;5.03;;;;;;;12.31;31.59;96421.22;5033911;28;20466;-27
2022/03/06 09:12:57;;;;;;;6.45;4.75;;;;;;;12.40;31.39;96418.56;5034012;28;20037;-26
2022/03/06 09:15:23;;;;;;;9.45;5.57;;;;;;;12.01;31.42;96427.19;5033875;28;20057;-28
2022/03/06 09:17:49;;;;;;;8.45;5.10;;;;;;;12.21;31.78;96419.59;5033906;28;20029;-28
2022/03/06 09:20:14;;;;;;;8.45;4.82;;;;;;;12.18;31.94;96426.66;5033866;28;20033;-26
2022/03/06 09:22:40;;;;;;;8.75;5.18;;;;;;;12.43;31.17;96420.44;5033465;28;20061;-26
2022/03/06 09:25:06;;;;;;;7.88;5.07;;;;;;;12.62;31.13;96426.78;5034095;28;20028;-26
2022/03/06 09:27:31;;;;;;;8.95;5.65;;;;;;;12.40;31.16;96426.72;5034069;28;20033;-26
2022/03/06 09:29:57;;;;;;;8.15;4.85;;;;;;;12.55;31.03;96427.03;5033890;28;20034;-26
2022/03/06 09:32:23;;;;;;;7.93;5.05;;;;;;;12.41;31.29;96432.94;5033662;28;20032;-28
2022/03/06 09:34:48;;;;;;;9.32;5.05;;;;;;;12.33;31.83;96435.13;5033606;28;20129;-26
2022/03/06 09:37:14;;;;;;;7.97;5.95;;;;;;;12.04;32.11;96443.41;5033824;28;20021;-26
2022/03/06 09:39:40;;;;;;;8.88;5.07;;;;;;;12.30;31.99;96444.16;5033580;28;20048;-26
2022/03/06 09:42:06;;;;;;;11.43;5.13;;;;;;;12.46;31.60;96446.75;5033524;28;20115;-26
2022/03/06 09:44:32;;;;;;;8.18;4.90;;;;;;;12.26;31.71;96440.78;5033618;28;20029;-26
2022/03/06 09:46:58;;;;;;;7.53;5.00;;;;;;;12.24;32.20;96424.13;5033348;28;20381;-26
2022/03/06 09:49:24;;;;;;;6.90;4.65;;;;;;;12.31;31.98;96434.03;5033562;28;20021;-26
2022/03/06 09:51:50;;;;;;;6.60;4.68;;;;;;;12.52;31.58;96431.38;5032294;28;20017;-28
2022/03/06 09:54:16;;;;;;;6.95;4.95;;;;;;;12.35;31.75;96438.19;5032711;28;20018;-26
2022/03/06 09:56:43;;;;;;;8.77;4.47;;;;;;;12.05;32.26;96438.75;5032047;28;20382;-27
2022/03/06 09:59:10;;;;;;;6.78;4.55;;;;;;;12.46;31.49;96430.44;5031572;28;20061;-26
2022/03/06 10:01:36;;;;;;;9.02;4.10;;;;;;;12.50;31.56;96436.50;5031464;28;20030;-27
2022/03/06 10:04:20;;;;;;;6.82;4.68;;;;;;;12.02;32.44;96434.91;5031304;28;20073;-26
2022/03/06 10:07:15;;;;;;;7.65;4.50;;;;;;;12.29;32.16;96431.75;5031411;28;20025;-26
2022/03/06 10:10:01;;;;;;;9.93;5.20;;;;;;;12.28;32.10;96429.47;5031300;28;20025;-26
2022/03/06 10:12:31;;;;;;;7.72;5.18;;;;;;;12.14;32.13;96420.56;5030948;28;20041;-27
2022/03/06 10:14:59;;;;;;;8.27;4.40;;;;;;;12.46;32.10;96438.59;5031370;28;20033;-26
2022/03/06 10:17:31;;;;;;;8.82;4.60;;;;;;;12.32;32.03;96436.34;5029679;28;20029;-28
2022/03/06 10:19:59;;;;;;;8.13;4.85;;;;;;;12.28;32.01;96438.38;5031264;28;20037;-28
2022/03/06 10:22:37;;;;;;;6.53;4.45;;;;;;;12.30;32.45;96433.28;5031201;28;20025;-27
2022/03/06 10:25:07;;;;;;;7.18;4.28;;;;;;;12.27;32.10;96439.59;5030973;28;20471;-26
2022/03/06 10:27:46;;;;;;;7.65;4.60;;;;;;;12.28;32.26;96443.06;5031162;28;20032;-26
2022/03/06 10:30:31;;;;;;;7.40;4.72;;;;;;;12.38;31.97;96442.72;5031302;28;20094;-28
2022/03/06 10:33:07;;;;;;;6.68;4.20;;;;;;;12.23;32.15;96434.28;5031012;28;20021;-26
2022/03/06 10:35:39;;;;;;;9.10;4.80;;;;;;;12.33;32.36;96437.09;5032089;28;20506;-28
2022/03/06 10:38:34;;;;;;;7.32;4.60;;;;;;;12.15;32.57;96424.03;5035051;28;20037;-27
2022/03/06 10:41:02;;;;;;;7.32;4.20;;;;;;;12.10;32.95;96435.47;5035044;28;20025;-27
2022/03/06 10:43:33;;;;;;;9.20;4.70;;;;;;;11.88;32.82;96429.91;5033581;28;20049;-27
2022/03/06 10:46:05;;;;;;;8.40;4.90;;;;;;;12.28;32.19;96435.66;5034797;28;20032;-26
2022/03/06 10:48:30;;;;;;;6.95;4.60;;;;;;;12.17;32.63;96440.69;5034629;28;20052;-27
2022/03/06 10:51:00;;;;;;;8.38;4.65;;;;;;;11.78;33.36;96436.44;5034831;28;20485;-26
2022/03/06 10:53:27;;;;;;;6.50;4.22;;;;;;;12.33;32.35;96431.66;5034741;28;20473;-25
2022/03/06 10:55:53;;;;;;;7.53;4.25;;;;;;;12.27;32.28;96438.81;5034552;28;20033;-26
2022/03/06 10:58:20;;;;;;;6.57;4.40;;;;;;;12.00;32.80;96431.13;5034734;28;20018;-27
2022/03/06 11:00:47;;;;;;;5.72;4.30;;;;;;;12.29;32.25;96431.00;5034144;28;20025;-26
2022/03/06 11:03:13;;;;;;;6.90;4.50;;;;;;;12.50;32.05;96428.34;5034166;28;20063;-26
2022/03/06 11:05:42;;;;;;;6.82;4.18;;;;;;;12.12;31.98;96419.47;5034224;28;20078;-26
2022/03/06 11:08:11;;;;;;;6.63;4.15;;;;;;;12.21;32.77;96425.78;5034325;28;20047;-27
2022/03/06 11:10:39;;;;;;;9.25;5.40;;;;;;;11.78;32.84;96431.75;5034363;28;20092;-26
2022/03/06 11:13:05;;;;;;;8.15;4.63;;;;;;;12.24;32.52;96424.13;5034241;28;20021;-26
2022/03/06 11:15:31;;;;;;;7.32;4.55;;;;;;;12.32;32.55;96430.88;5034113;28;20033;-26
2022/03/06 11:18:00;;;;;;;13.20;5.88;;;;;;;12.36;32.32;96428.06;5032629;28;20025;-26
2022/03/06 11:20:28;;;;;;;6.55;4.70;;;;;;;11.77;32.88;96430.25;5034254;28;20052;-27
2022/03/06 11:23:28;;;;;;;9.23;4.07;;;;;;;11.82;32.99;96413.41;5033702;28;20032;-27
2022/03/06 11:26:19;;;;;;;6.35;4.20;;;;;;;12.17;32.56;96405.34;5032922;28;20033;-29
2022/03/06 11:29:22;;;;;;;6.07;4.10;;;;;;;12.57;31.98;96414.53;5033987;28;20048;-27